createdAt,value
2023-03-19T00:00:02.078Z,100993.56
2023-03-19T00:02:32.712Z,100993.56
2023-03-19T00:05:03.079Z,100995.50
2023-03-19T00:07:32.186Z,100993.31
2023-03-19T00:10:02.467Z,101003.03
2023-03-19T00:15:32.681Z,101015.28
2023-03-19T00:18:09.196Z,101009.06
2023-03-19T00:20:47.138Z,101023.41
2023-03-19T00:23:33.306Z,101036.88
2023-03-19T00:26:23.822Z,101045.03
2023-03-19T00:38:05.187Z,101058.63
2023-03-19T00:49:49.984Z,101027.97
2023-03-19T00:55:42.515Z,101047.25
2023-03-19T00:58:16.221Z,101073.97
2023-03-19T01:00:55.819Z,101060.75
2023-03-19T01:03:24.792Z,101064.34
2023-03-19T01:06:00.042Z,101059.00
2023-03-19T01:08:50.459Z,101069.69
2023-03-19T01:11:32.457Z,101069.94
2023-03-19T01:14:02.734Z,101067.16
2023-03-19T01:16:33.051Z,101050.28
2023-03-19T01:19:21.069Z,101059.34
2023-03-19T01:22:01.103Z,101061.41
2023-03-19T01:24:55.380Z,101073.28
2023-03-19T01:27:38.479Z,101088.34
2023-03-19T01:30:08.456Z,101077.44
2023-03-19T01:32:46.451Z,101076.94
2023-03-19T01:35:15.004Z,101052.91
2023-03-19T01:37:48.679Z,101056.50
2023-03-19T01:40:23.097Z,101054.22
2023-03-19T01:42:58.970Z,101059.66
2023-03-19T01:45:57.747Z,101073.00
2023-03-19T01:48:59.519Z,101067.91
2023-03-19T01:51:38.457Z,101074.44
2023-03-19T02:03:48.756Z,101077.19
2023-03-19T02:06:18.608Z,101082.44
2023-03-19T02:08:48.832Z,101091.16
2023-03-19T02:11:18.058Z,101088.28
2023-03-19T02:13:47.486Z,101082.69
2023-03-19T02:16:19.626Z,101089.44
2023-03-19T02:18:50.208Z,101092.72
2023-03-19T02:21:22.333Z,101092.72
2023-03-19T02:24:01.785Z,101090.88
2023-03-19T02:26:32.888Z,101092.31
2023-03-19T02:29:02.316Z,101093.28
2023-03-19T02:34:49.697Z,101087.88
2023-03-19T02:37:22.612Z,101084.75
2023-03-19T02:39:58.474Z,101097.94
2023-03-19T02:42:32.233Z,101118.63
2023-03-19T02:45:01.218Z,101123.31
2023-03-19T02:47:29.811Z,101115.31
2023-03-19T02:50:09.781Z,101119.81
2023-03-19T02:52:38.816Z,101110.81
2023-03-19T02:55:11.434Z,101100.47
2023-03-19T02:57:45.820Z,101106.47
2023-03-19T03:00:15.028Z,101100.72
2023-03-19T03:02:43.810Z,101103.47
2023-03-19T03:05:12.194Z,101107.75
2023-03-19T03:07:43.719Z,101105.09
2023-03-19T03:10:12.951Z,101102.53
2023-03-19T03:12:46.657Z,101114.06
2023-03-19T03:15:17.296Z,101099.97
2023-03-19T03:17:47.227Z,101115.75
2023-03-19T03:20:17.971Z,101108.94
2023-03-19T03:22:52.187Z,101105.75
2023-03-19T03:25:22.781Z,101103.84
2023-03-19T03:30:38.799Z,101120.06
2023-03-19T03:33:08.115Z,101133.94
2023-03-19T03:35:39.410Z,101126.88
2023-03-19T03:38:08.556Z,101137.56
2023-03-19T03:40:37.014Z,101137.31
2023-03-19T03:43:06.896Z,101134.78
2023-03-19T03:45:37.321Z,101146.19
2023-03-19T03:48:07.824Z,101137.31
2023-03-19T03:50:36.810Z,101137.44
2023-03-19T03:53:05.496Z,101144.59
2023-03-19T03:55:33.918Z,101152.59
2023-03-19T03:58:03.490Z,101149.28
2023-03-19T04:00:38.553Z,101147.59
2023-03-19T04:03:13.483Z,101151.31
2023-03-19T04:05:58.477Z,101144.28
2023-03-19T04:08:29.569Z,101148.03
2023-03-19T04:10:58.495Z,101145.56
2023-03-19T04:13:27.988Z,101152.09
2023-03-19T04:16:01.166Z,101146.13
2023-03-19T04:18:48.030Z,101156.69
2023-03-19T04:24:16.922Z,101184.53
2023-03-19T04:26:50.837Z,101184.41
2023-03-19T04:29:21.035Z,101192.34
2023-03-19T04:32:05.366Z,101190.53
2023-03-19T04:37:35.596Z,101181.56
2023-03-19T04:40:11.408Z,101188.72
2023-03-19T04:42:56.643Z,101194.91
2023-03-19T04:45:56.427Z,101203.63
2023-03-19T04:52:21.589Z,101216.78
2023-03-19T04:55:03.177Z,101215.72
2023-03-19T04:57:33.976Z,101225.44
2023-03-19T05:00:05.403Z,101230.66
2023-03-19T05:02:34.395Z,101236.00
2023-03-19T05:05:04.260Z,101237.50
2023-03-19T05:07:34.443Z,101246.75
2023-03-19T05:10:02.732Z,101240.25
2023-03-19T05:12:30.978Z,101238.34
2023-03-19T05:15:00.346Z,101232.78
2023-03-19T05:17:29.075Z,101247.22
2023-03-19T05:19:57.226Z,101247.22
2023-03-19T05:22:25.379Z,101249.03
2023-03-19T05:24:54.944Z,101242.72
2023-03-19T05:27:23.949Z,101247.53
2023-03-19T05:29:52.424Z,101249.22
2023-03-19T05:32:21.477Z,101267.91
2023-03-19T05:34:50.201Z,101267.25
2023-03-19T05:37:18.486Z,101271.56
2023-03-19T05:39:49.637Z,101259.91
2023-03-19T05:42:21.119Z,101258.72
2023-03-19T05:44:49.495Z,101279.34
2023-03-19T05:47:20.668Z,101277.53
2023-03-19T05:49:49.688Z,101269.63
2023-03-19T05:52:18.266Z,101261.72
2023-03-19T05:54:49.556Z,101275.28
2023-03-19T05:57:21.067Z,101285.72
2023-03-19T05:59:52.907Z,101264.38
2023-03-19T06:02:25.736Z,101273.22
2023-03-19T06:04:54.452Z,101276.75
2023-03-19T06:07:29.498Z,101274.31
2023-03-19T06:10:02.683Z,101275.38
2023-03-19T06:15:29.142Z,101291.50
2023-03-19T06:17:58.135Z,101296.94
2023-03-19T06:20:28.310Z,101293.44
2023-03-19T06:22:59.402Z,101274.94
2023-03-19T06:25:30.046Z,101278.47
2023-03-19T06:28:01.661Z,101301.81
2023-03-19T06:30:30.884Z,101316.91
2023-03-19T06:33:00.003Z,101313.47
2023-03-19T06:35:28.232Z,101304.28
2023-03-19T06:37:56.328Z,101295.31
2023-03-19T06:40:24.838Z,101297.25
2023-03-19T06:42:53.415Z,101296.59
2023-03-19T06:45:24.050Z,101294.91
2023-03-19T06:47:53.644Z,101287.00
2023-03-19T06:50:22.018Z,101300.44
2023-03-19T06:52:50.656Z,101319.22
2023-03-19T06:55:20.851Z,101313.03
2023-03-19T06:57:54.234Z,101289.09
2023-03-19T07:00:24.663Z,101282.91
2023-03-19T07:02:53.500Z,101312.38
2023-03-19T07:05:22.056Z,101324.84
2023-03-19T07:07:55.774Z,101331.78
2023-03-19T07:10:24.850Z,101312.72
2023-03-19T07:12:53.283Z,101308.13
2023-03-19T07:15:21.722Z,101310.91
2023-03-19T07:17:51.149Z,101312.19
2023-03-19T07:20:19.434Z,101323.69
2023-03-19T07:22:47.374Z,101342.16
2023-03-19T07:25:16.513Z,101356.91
2023-03-19T07:27:45.674Z,101330.88
2023-03-19T07:30:15.310Z,101327.69
2023-03-19T07:32:44.268Z,101330.34
2023-03-19T07:35:14.500Z,101363.91
2023-03-19T07:37:43.568Z,101362.50
2023-03-19T07:40:13.465Z,101349.69
2023-03-19T07:42:43.985Z,101345.66
2023-03-19T07:45:13.711Z,101345.56
2023-03-19T07:47:42.063Z,101355.19
2023-03-19T07:50:11.211Z,101338.13
2023-03-19T07:52:40.725Z,101331.50
2023-03-19T07:55:09.450Z,101341.22
2023-03-19T07:57:38.478Z,101366.75
2023-03-19T08:00:08.789Z,101370.72
2023-03-19T08:02:36.896Z,101362.91
2023-03-19T08:05:09.983Z,101354.25
2023-03-19T08:07:38.786Z,101359.50
2023-03-19T08:10:10.185Z,101376.78
2023-03-19T08:12:42.233Z,101377.13
2023-03-19T08:15:12.409Z,101379.47
2023-03-19T08:17:41.249Z,101384.69
2023-03-19T08:20:12.653Z,101391.34
2023-03-19T08:22:41.997Z,101396.03
2023-03-19T08:25:12.150Z,101391.28
2023-03-19T08:27:40.645Z,101386.84
2023-03-19T08:30:11.202Z,101401.38
2023-03-19T08:32:39.614Z,101406.00
2023-03-19T08:35:08.743Z,101402.56
2023-03-19T08:37:36.810Z,101408.38
2023-03-19T08:40:05.965Z,101415.66
2023-03-19T08:42:39.046Z,101437.25
2023-03-19T08:45:08.830Z,101437.06
2023-03-19T08:47:36.939Z,101413.59
2023-03-19T08:50:07.209Z,101399.03
2023-03-19T08:52:35.731Z,101411.56
2023-03-19T08:55:03.931Z,101424.28
2023-03-19T08:57:32.630Z,101440.84
2023-03-19T09:00:10.867Z,101430.97
2023-03-19T09:02:40.415Z,101432.25
2023-03-19T09:05:09.303Z,101431.19
2023-03-19T09:07:37.435Z,101420.06
2023-03-19T09:10:07.463Z,101428.38
2023-03-19T09:12:35.901Z,101435.22
2023-03-19T09:15:08.395Z,101446.72
2023-03-19T09:17:36.539Z,101444.06
2023-03-19T09:20:06.454Z,101431.94
2023-03-19T09:22:34.529Z,101438.81
2023-03-19T09:25:02.756Z,101444.72
2023-03-19T09:27:30.957Z,101470.59
2023-03-19T09:29:59.062Z,101448.56
2023-03-19T09:32:29.083Z,101438.38
2023-03-19T09:34:57.633Z,101445.75
2023-03-19T09:37:25.988Z,101474.34
2023-03-19T09:39:54.025Z,101463.91
2023-03-19T09:42:35.748Z,101453.97
2023-03-19T09:45:04.018Z,101466.38
2023-03-19T09:47:35.792Z,101464.88
2023-03-19T09:50:08.525Z,101462.84
2023-03-19T09:52:43.248Z,101471.94
2023-03-19T09:55:29.715Z,101472.03
2023-03-19T09:58:01.012Z,101454.31
2023-03-19T10:00:31.556Z,101453.16
2023-03-19T10:03:07.699Z,101472.47
2023-03-19T10:05:46.918Z,101481.00
2023-03-19T10:08:36.486Z,101484.13
2023-03-19T10:11:19.773Z,101470.31
2023-03-19T10:13:58.560Z,101476.84
2023-03-19T10:16:28.516Z,101486.13
2023-03-19T10:19:02.114Z,101477.38
2023-03-19T10:21:36.645Z,101481.72
2023-03-19T10:24:09.783Z,101474.91
2023-03-19T10:26:38.020Z,101485.38
2023-03-19T10:29:09.573Z,101485.03
2023-03-19T10:31:48.526Z,101492.44
2023-03-19T10:34:31.549Z,101500.28
2023-03-19T10:37:02.183Z,101494.53
2023-03-19T10:39:32.016Z,101478.81
2023-03-19T10:42:10.897Z,101479.53
2023-03-19T10:44:44.801Z,101500.78
2023-03-19T10:47:14.732Z,101503.94
2023-03-19T10:49:44.426Z,101485.13
2023-03-19T10:52:23.184Z,101482.69
2023-03-19T10:54:56.949Z,101491.72
2023-03-19T10:57:29.048Z,101489.78
2023-03-19T10:59:57.404Z,101500.03
2023-03-19T11:02:31.236Z,101484.53
2023-03-19T11:05:25.029Z,101504.53
2023-03-19T11:07:58.168Z,101505.75
2023-03-19T11:10:30.046Z,101501.13
2023-03-19T11:13:01.340Z,101491.59
2023-03-19T11:15:36.429Z,101493.44
2023-03-19T11:18:17.467Z,101487.34
2023-03-19T11:20:51.964Z,101485.16
2023-03-19T11:23:21.506Z,101488.91
2023-03-19T11:25:53.247Z,101500.84
2023-03-19T11:28:26.804Z,101497.59
2023-03-19T11:31:01.952Z,101492.44
2023-03-19T11:33:56.005Z,101515.50
2023-03-19T11:36:31.251Z,101508.19
2023-03-19T11:39:18.354Z,101507.81
2023-03-19T11:41:56.389Z,101496.38
2023-03-19T11:44:31.938Z,101500.75
2023-03-19T11:47:24.589Z,101504.19
2023-03-19T11:50:19.629Z,101523.09
2023-03-19T11:53:12.418Z,101504.94
2023-03-19T11:55:45.483Z,101503.69
2023-03-19T11:58:30.800Z,101518.84
2023-03-19T12:01:02.209Z,101529.56
2023-03-19T12:03:59.676Z,101512.34
2023-03-19T12:06:37.806Z,101525.41
2023-03-19T12:09:18.394Z,101520.78
2023-03-19T12:11:53.669Z,101534.66
2023-03-19T12:14:40.842Z,101535.88
2023-03-19T12:17:26.341Z,101527.34
2023-03-19T12:20:11.990Z,101536.84
2023-03-19T12:22:54.766Z,101536.34
2023-03-19T12:25:32.020Z,101530.22
2023-03-19T12:28:11.594Z,101521.97
2023-03-19T12:30:43.713Z,101524.41
2023-03-19T12:33:32.676Z,101543.09
2023-03-19T12:36:04.041Z,101540.75
2023-03-19T12:38:39.147Z,101544.31
2023-03-19T12:41:13.683Z,101543.94
2023-03-19T12:43:51.908Z,101529.41
2023-03-19T12:46:27.328Z,101558.31
2023-03-19T12:49:00.867Z,101535.63
2023-03-19T12:51:35.272Z,101539.06
2023-03-19T12:54:08.246Z,101532.69
2023-03-19T12:56:46.052Z,101532.09
2023-03-19T12:59:42.573Z,101529.38
2023-03-19T13:02:21.486Z,101527.81
2023-03-19T13:04:55.435Z,101529.00
2023-03-19T13:07:30.149Z,101528.91
2023-03-19T13:10:05.225Z,101522.91
2023-03-19T13:12:40.320Z,101525.69
2023-03-19T13:15:14.557Z,101527.75
2023-03-19T13:17:57.488Z,101528.25
2023-03-19T13:20:35.297Z,101519.19
2023-03-19T13:23:09.340Z,101522.63
2023-03-19T13:25:43.162Z,101507.00
2023-03-19T13:28:26.281Z,101520.09
2023-03-19T13:31:06.761Z,101522.06
2023-03-19T13:33:37.839Z,101516.09
2023-03-19T13:36:09.751Z,101511.31
2023-03-19T13:38:43.261Z,101517.06
2023-03-19T13:41:52.216Z,101509.47
2023-03-19T13:44:30.371Z,101503.38
2023-03-19T13:47:02.885Z,101501.44
2023-03-19T13:49:36.600Z,101518.16
2023-03-19T13:52:50.301Z,101501.44
2023-03-19T13:55:47.374Z,101496.69
2023-03-19T13:58:49.330Z,101501.19
2023-03-19T14:01:52.288Z,101501.19
2023-03-19T14:04:25.114Z,101493.66
2023-03-19T14:06:57.605Z,101497.53
2023-03-19T14:09:37.694Z,101499.97
2023-03-19T14:12:22.019Z,101500.44
2023-03-19T14:14:54.583Z,101503.75
2023-03-19T14:17:27.993Z,101491.78
2023-03-19T14:19:56.544Z,101489.53
2023-03-19T14:22:40.918Z,101502.22
2023-03-19T14:25:22.789Z,101497.03
2023-03-19T14:27:52.977Z,101506.34
2023-03-19T14:30:31.153Z,101502.41
2023-03-19T14:33:04.638Z,101494.53
2023-03-19T14:35:38.009Z,101496.31
2023-03-19T14:38:15.503Z,101491.53
2023-03-19T14:40:50.904Z,101491.78
2023-03-19T14:43:49.402Z,101487.88
2023-03-19T14:46:24.947Z,101499.88
2023-03-19T14:49:33.000Z,101506.09
2023-03-19T14:52:06.332Z,101507.41
2023-03-19T14:54:43.132Z,101490.28
2023-03-19T14:57:20.048Z,101496.88
2023-03-19T14:59:50.560Z,101495.25
2023-03-19T15:02:33.041Z,101485.66
2023-03-19T15:05:06.739Z,101481.63
2023-03-19T15:07:39.422Z,101492.69
2023-03-19T15:10:15.442Z,101481.16
2023-03-19T15:13:04.504Z,101481.31
2023-03-19T15:15:41.289Z,101494.53
2023-03-19T15:18:13.285Z,101490.19
2023-03-19T15:20:58.695Z,101484.47
2023-03-19T15:23:30.191Z,101481.66
2023-03-19T15:26:01.957Z,101489.47
2023-03-19T15:28:32.331Z,101484.84
2023-03-19T15:31:19.458Z,101491.72
2023-03-19T15:33:53.653Z,101504.28
2023-03-19T15:36:30.455Z,101508.09
2023-03-19T15:39:02.368Z,101498.69
2023-03-19T15:41:36.508Z,101504.16
2023-03-19T15:44:11.046Z,101504.94
2023-03-19T15:46:44.794Z,101492.97
2023-03-19T15:49:18.691Z,101492.47
2023-03-19T15:51:54.488Z,101504.66
2023-03-19T15:54:23.908Z,101493.22
2023-03-19T15:56:53.750Z,101492.22
2023-03-19T15:59:46.005Z,101494.38
2023-03-19T16:02:37.167Z,101489.22
2023-03-19T16:08:01.343Z,101491.16
2023-03-19T16:10:41.603Z,101483.25
2023-03-19T16:13:32.921Z,101482.28
2023-03-19T16:16:14.212Z,101484.22
2023-03-19T16:18:46.072Z,101470.19
2023-03-19T16:21:19.865Z,101481.69
2023-03-19T16:23:56.059Z,101484.34
2023-03-19T16:26:36.602Z,101475.81
2023-03-19T16:29:11.126Z,101486.53
2023-03-19T16:31:59.643Z,101479.44
2023-03-19T16:34:36.752Z,101490.41
2023-03-19T16:37:27.724Z,101493.81
2023-03-19T16:40:26.712Z,101501.22
2023-03-19T16:43:10.293Z,101491.59
2023-03-19T16:45:39.331Z,101502.53
2023-03-19T16:48:12.938Z,101494.00
2023-03-19T16:50:51.513Z,101502.03
2023-03-19T16:53:26.231Z,101494.84
2023-03-19T16:56:00.875Z,101494.00
2023-03-19T16:58:38.279Z,101496.91
2023-03-19T17:01:29.867Z,101495.06
2023-03-19T17:04:03.324Z,101490.81
2023-03-19T17:06:38.746Z,101487.28
2023-03-19T17:09:25.483Z,101498.22
2023-03-19T17:22:23.563Z,101507.47
2023-03-19T17:24:53.801Z,101495.88
2023-03-19T17:27:22.523Z,101489.34
2023-03-19T17:29:56.498Z,101479.25
2023-03-19T17:32:27.017Z,101485.97
2023-03-19T17:34:55.299Z,101494.50
2023-03-19T17:37:23.769Z,101503.91
2023-03-19T17:39:53.848Z,101517.06
2023-03-19T17:42:25.324Z,101518.56
2023-03-19T17:44:53.610Z,101533.16
2023-03-19T17:47:23.453Z,101560.66
2023-03-19T17:49:51.913Z,101581.81
2023-03-19T17:52:23.944Z,101587.97
2023-03-19T17:54:53.670Z,101579.41
2023-03-19T17:57:21.752Z,101553.59
2023-03-19T17:59:53.740Z,101503.88
2023-03-19T18:02:28.476Z,101515.13
2023-03-19T18:04:58.785Z,101508.66
2023-03-19T18:07:27.717Z,101490.78
2023-03-19T18:09:57.470Z,101490.78
2023-03-19T18:12:26.347Z,101486.63
2023-03-19T18:14:57.675Z,101475.16
2023-03-19T18:17:27.774Z,101476.13
2023-03-19T18:20:00.745Z,101474.19
2023-03-19T18:22:29.498Z,101472.59
2023-03-19T18:24:59.286Z,101464.78
2023-03-19T18:27:28.286Z,101451.38
2023-03-19T18:29:56.554Z,101448.69
2023-03-19T18:32:29.151Z,101462.00
2023-03-19T18:34:57.554Z,101462.09
2023-03-19T18:37:25.793Z,101463.94
2023-03-19T18:39:54.093Z,101459.31
2023-03-19T18:42:23.901Z,101467.88
2023-03-19T18:44:52.506Z,101461.31
2023-03-19T18:47:21.036Z,101461.81
2023-03-19T18:49:50.254Z,101454.38
2023-03-19T18:52:19.827Z,101464.03
2023-03-19T18:58:06.776Z,101466.69
2023-03-19T19:00:51.827Z,101453.31
2023-03-19T19:03:41.358Z,101463.03
2023-03-19T19:06:10.610Z,101459.38
2023-03-19T19:11:24.924Z,101453.03
2023-03-19T19:13:59.937Z,101444.06
2023-03-19T19:16:54.465Z,101443.81
2023-03-19T19:19:28.356Z,101444.66
2023-03-19T19:24:57.999Z,101441.97
2023-03-19T19:27:31.460Z,101450.91
2023-03-19T19:30:02.566Z,101452.59
2023-03-19T19:32:33.395Z,101456.25
2023-03-19T19:35:11.566Z,101449.78
2023-03-19T19:37:42.692Z,101453.44
2023-03-19T19:40:26.574Z,101448.22
2023-03-19T19:42:57.361Z,101455.16
2023-03-19T19:45:43.161Z,101466.00
2023-03-19T19:48:18.531Z,101462.22
2023-03-19T19:50:49.603Z,101465.88
2023-03-19T19:53:20.872Z,101458.56
2023-03-19T19:55:49.763Z,101471.72
2023-03-19T19:58:23.999Z,101473.34
2023-03-19T20:01:03.391Z,101471.38
2023-03-19T20:03:34.685Z,101473.09
2023-03-19T20:06:04.021Z,101471.16
2023-03-19T20:08:33.252Z,101478.44
2023-03-19T20:13:51.799Z,101484.44
2023-03-19T20:16:42.157Z,101482.59
2023-03-19T20:22:12.826Z,101474.78
2023-03-19T20:24:42.324Z,101477.47
2023-03-19T20:27:20.641Z,101477.72
2023-03-19T20:32:58.322Z,101482.72
2023-03-19T20:35:34.203Z,101484.31
2023-03-19T20:38:09.995Z,101483.31
2023-03-19T20:40:44.187Z,101495.53
2023-03-19T20:43:26.838Z,101494.59
2023-03-19T20:45:59.772Z,101487.25
2023-03-19T20:48:31.243Z,101489.72
2023-03-19T20:51:02.109Z,101479.72
2023-03-19T20:53:31.585Z,101477.75
2023-03-19T20:58:49.737Z,101487.31
2023-03-19T21:01:19.018Z,101489.75
2023-03-19T21:03:50.970Z,101487.81
2023-03-19T21:06:52.128Z,101483.28
2023-03-19T21:13:17.071Z,101474.84
2023-03-19T21:16:12.549Z,101465.09
2023-03-19T21:18:52.719Z,101467.78
2023-03-19T21:21:31.366Z,101471.44
2023-03-19T21:24:07.064Z,101474.22
2023-03-19T21:26:40.107Z,101469.72
2023-03-19T21:29:14.326Z,101466.31
2023-03-19T21:31:43.322Z,101448.38
2023-03-19T21:34:15.303Z,101449.75
2023-03-19T21:36:46.037Z,101437.97
2023-03-19T21:39:14.071Z,101434.28
2023-03-19T21:41:44.158Z,101435.78
2023-03-19T21:44:16.392Z,101436.38
2023-03-19T21:46:48.037Z,101430.13
2023-03-19T21:49:17.983Z,101435.28
2023-03-19T21:51:48.428Z,101429.69
2023-03-19T21:54:16.528Z,101423.47
2023-03-19T21:56:46.001Z,101424.53
2023-03-19T21:59:16.564Z,101413.69
2023-03-19T22:01:44.935Z,101420.88
2023-03-19T22:04:13.109Z,101424.41
2023-03-19T22:06:41.802Z,101422.47
2023-03-19T22:09:11.369Z,101419.81
2023-03-19T22:11:41.711Z,101428.69
2023-03-19T22:14:17.927Z,101419.53
2023-03-19T22:16:46.767Z,101416.75
2023-03-19T22:19:17.670Z,101411.25
2023-03-19T22:21:47.543Z,101409.44
2023-03-19T22:24:17.993Z,101406.88
2023-03-19T22:26:49.411Z,101400.66
2023-03-19T22:29:21.257Z,101406.03
2023-03-19T22:31:50.000Z,101401.75
2023-03-19T22:34:20.840Z,101396.38
2023-03-19T22:36:49.834Z,101391.16
2023-03-19T22:39:20.213Z,101393.09
2023-03-19T22:41:50.442Z,101386.88
2023-03-19T22:44:24.353Z,101388.47
2023-03-19T22:46:53.106Z,101385.31
2023-03-19T22:49:21.293Z,101383.59
2023-03-19T22:51:49.608Z,101384.69
2023-03-19T22:54:19.646Z,101381.28
2023-03-19T22:56:48.214Z,101393.47
2023-03-19T22:59:16.467Z,101387.13
2023-03-19T23:01:46.402Z,101394.91
2023-03-19T23:04:22.989Z,101382.47
2023-03-19T23:06:52.348Z,101389.56
2023-03-19T23:09:25.002Z,101385.31
2023-03-19T23:11:54.033Z,101386.88
2023-03-19T23:14:29.624Z,101395.66
2023-03-19T23:17:00.528Z,101392.13
2023-03-19T23:19:31.864Z,101382.25
2023-03-19T23:22:02.802Z,101393.59
2023-03-19T23:24:32.837Z,101390.50
2023-03-19T23:27:03.171Z,101384.19
2023-03-19T23:29:34.967Z,101388.34
2023-03-19T23:32:04.521Z,101383.56
2023-03-19T23:34:39.823Z,101380.78
2023-03-19T23:37:13.932Z,101386.16
2023-03-19T23:39:43.808Z,101385.25
2023-03-19T23:42:23.572Z,101378.81
2023-03-19T23:44:52.652Z,101379.91
2023-03-19T23:47:21.149Z,101372.13
2023-03-19T23:49:49.358Z,101381.25
2023-03-19T23:52:17.750Z,101380.16
2023-03-19T23:54:47.880Z,101372.25
2023-03-19T23:57:17.358Z,101369.44
2023-03-19T23:59:48.758Z,101371.38
